sensor_id;sensor_type;location;lat;lon;timestamp;P1;durP1;ratioP1;P2;durP2;ratioP2
57297;SDS011;43147;50.972;18.210;2023-03-19T00:01:52;19.90;;;9.50;;
57297;SDS011;43147;50.972;18.210;2023-03-19T00:04:18;21.20;;;10.10;;
57297;SDS011;43147;50.972;18.210;2023-03-19T00:06:43;25.20;;;10.30;;
57297;SDS011;43147;50.972;18.210;2023-03-19T00:09:09;26.90;;;11.30;;
57297;SDS011;43147;50.972;18.210;2023-03-19T00:11:38;23.60;;;10.60;;
57297;SDS011;43147;50.972;18.210;2023-03-19T00:14:04;24.50;;;10.60;;
57297;SDS011;43147;50.972;18.210;2023-03-19T00:16:30;27.80;;;10.40;;
57297;SDS011;43147;50.972;18.210;2023-03-19T00:18:55;24.70;;;10.40;;
57297;SDS011;43147;50.972;18.210;2023-03-19T00:21:21;27.40;;;11.30;;
57297;SDS011;43147;50.972;18.210;2023-03-19T00:23:47;27.80;;;10.90;;
57297;SDS011;43147;50.972;18.210;2023-03-19T00:26:12;30.10;;;12.00;;
57297;SDS011;43147;50.972;18.210;2023-03-19T00:28:38;22.10;;;9.40;;
57297;SDS011;43147;50.972;18.210;2023-03-19T00:31:10;20.90;;;10.20;;
57297;SDS011;43147;50.972;18.210;2023-03-19T00:36:04;22.50;;;9.30;;
57297;SDS011;43147;50.972;18.210;2023-03-19T00:38:31;30.90;;;10.70;;
57297;SDS011;43147;50.972;18.210;2023-03-19T00:40:57;35.90;;;12.40;;
57297;SDS011;43147;50.972;18.210;2023-03-19T00:43:23;33.90;;;12.10;;
57297;SDS011;43147;50.972;18.210;2023-03-19T00:45:49;31.30;;;11.40;;
57297;SDS011;43147;50.972;18.210;2023-03-19T00:48:15;38.50;;;12.70;;
57297;SDS011;43147;50.972;18.210;2023-03-19T00:50:42;26.70;;;9.90;;
57297;SDS011;43147;50.972;18.210;2023-03-19T00:53:07;26.50;;;10.70;;
57297;SDS011;43147;50.972;18.210;2023-03-19T00:55:33;27.30;;;10.10;;
57297;SDS011;43147;50.972;18.210;2023-03-19T00:57:59;24.60;;;10.50;;
57297;SDS011;43147;50.972;18.210;2023-03-19T01:00:25;26.10;;;10.90;;
57297;SDS011;43147;50.972;18.210;2023-03-19T01:02:51;25.90;;;9.30;;
57297;SDS011;43147;50.972;18.210;2023-03-19T01:05:17;30.10;;;11.20;;
57297;SDS011;43147;50.972;18.210;2023-03-19T01:07:42;25.60;;;9.90;;
57297;SDS011;43147;50.972;18.210;2023-03-19T01:10:08;25.80;;;9.30;;
57297;SDS011;43147;50.972;18.210;2023-03-19T01:12:34;19.40;;;9.50;;
57297;SDS011;43147;50.972;18.210;2023-03-19T01:15:01;22.80;;;11.60;;
57297;SDS011;43147;50.972;18.210;2023-03-19T01:17:31;25.10;;;11.40;;
57297;SDS011;43147;50.972;18.210;2023-03-19T01:19:57;21.30;;;10.90;;
57297;SDS011;43147;50.972;18.210;2023-03-19T01:22:22;21.90;;;11.20;;
57297;SDS011;43147;50.972;18.210;2023-03-19T01:24:48;26.20;;;10.50;;
57297;SDS011;43147;50.972;18.210;2023-03-19T01:27:17;25.20;;;10.10;;
57297;SDS011;43147;50.972;18.210;2023-03-19T01:29:42;21.90;;;10.20;;
57297;SDS011;43147;50.972;18.210;2023-03-19T01:32:08;21.00;;;9.70;;
57297;SDS011;43147;50.972;18.210;2023-03-19T01:34:34;20.60;;;9.60;;
57297;SDS011;43147;50.972;18.210;2023-03-19T01:36:59;21.00;;;9.80;;
57297;SDS011;43147;50.972;18.210;2023-03-19T01:39:25;21.70;;;9.80;;
57297;SDS011;43147;50.972;18.210;2023-03-19T01:41:52;21.80;;;9.40;;
57297;SDS011;43147;50.972;18.210;2023-03-19T01:44:30;25.20;;;9.40;;
57297;SDS011;43147;50.972;18.210;2023-03-19T01:46:58;20.60;;;9.10;;
57297;SDS011;43147;50.972;18.210;2023-03-19T01:49:26;20.70;;;8.60;;
57297;SDS011;43147;50.972;18.210;2023-03-19T01:51:53;20.60;;;9.40;;
57297;SDS011;43147;50.972;18.210;2023-03-19T01:54:21;22.30;;;10.00;;
57297;SDS011;43147;50.972;18.210;2023-03-19T01:56:48;18.50;;;8.30;;
57297;SDS011;43147;50.972;18.210;2023-03-19T01:59:20;20.70;;;9.60;;
57297;SDS011;43147;50.972;18.210;2023-03-19T02:01:52;22.00;;;9.20;;
57297;SDS011;43147;50.972;18.210;2023-03-19T02:04:21;22.80;;;10.00;;
57297;SDS011;43147;50.972;18.210;2023-03-19T02:06:50;22.90;;;9.20;;
57297;SDS011;43147;50.972;18.210;2023-03-19T02:09:16;23.10;;;10.80;;
57297;SDS011;43147;50.972;18.210;2023-03-19T02:11:43;21.50;;;10.10;;
57297;SDS011;43147;50.972;18.210;2023-03-19T02:14:09;18.50;;;9.60;;
57297;SDS011;43147;50.972;18.210;2023-03-19T02:16:37;25.10;;;9.80;;
57297;SDS011;43147;50.972;18.210;2023-03-19T02:19:04;20.80;;;10.40;;
57297;SDS011;43147;50.972;18.210;2023-03-19T02:21:31;17.10;;;9.30;;
57297;SDS011;43147;50.972;18.210;2023-03-19T02:24:07;23.00;;;10.90;;
57297;SDS011;43147;50.972;18.210;2023-03-19T02:26:41;27.20;;;10.60;;
57297;SDS011;43147;50.972;18.210;2023-03-19T02:29:07;23.00;;;10.20;;
57297;SDS011;43147;50.972;18.210;2023-03-19T02:31:34;20.40;;;9.80;;
57297;SDS011;43147;50.972;18.210;2023-03-19T02:36:27;26.30;;;11.50;;
57297;SDS011;43147;50.972;18.210;2023-03-19T02:38:59;19.70;;;8.90;;
57297;SDS011;43147;50.972;18.210;2023-03-19T02:41:27;28.00;;;10.80;;
57297;SDS011;43147;50.972;18.210;2023-03-19T02:43:54;17.20;;;9.60;;
57297;SDS011;43147;50.972;18.210;2023-03-19T02:46:20;18.40;;;9.90;;
57297;SDS011;43147;50.972;18.210;2023-03-19T02:48:46;22.20;;;10.20;;
57297;SDS011;43147;50.972;18.210;2023-03-19T02:51:12;24.50;;;10.70;;
57297;SDS011;43147;50.972;18.210;2023-03-19T02:53:38;24.40;;;10.60;;
57297;SDS011;43147;50.972;18.210;2023-03-19T02:56:04;22.30;;;9.40;;
57297;SDS011;43147;50.972;18.210;2023-03-19T02:58:30;18.90;;;9.60;;
57297;SDS011;43147;50.972;18.210;2023-03-19T03:00:56;20.70;;;10.40;;
57297;SDS011;43147;50.972;18.210;2023-03-19T03:03:21;22.70;;;10.20;;
57297;SDS011;43147;50.972;18.210;2023-03-19T03:05:47;20.90;;;10.40;;
57297;SDS011;43147;50.972;18.210;2023-03-19T03:08:12;24.80;;;9.90;;
57297;SDS011;43147;50.972;18.210;2023-03-19T03:10:38;22.10;;;11.10;;
57297;SDS011;43147;50.972;18.210;2023-03-19T03:13:03;25.20;;;11.00;;
57297;SDS011;43147;50.972;18.210;2023-03-19T03:15:29;21.00;;;9.70;;
57297;SDS011;43147;50.972;18.210;2023-03-19T03:17:55;22.40;;;10.30;;
57297;SDS011;43147;50.972;18.210;2023-03-19T03:20:21;19.70;;;9.80;;
57297;SDS011;43147;50.972;18.210;2023-03-19T03:22:47;23.20;;;11.30;;
57297;SDS011;43147;50.972;18.210;2023-03-19T03:25:13;21.50;;;9.60;;
57297;SDS011;43147;50.972;18.210;2023-03-19T03:27:39;21.10;;;10.80;;
57297;SDS011;43147;50.972;18.210;2023-03-19T03:30:05;27.40;;;10.50;;
57297;SDS011;43147;50.972;18.210;2023-03-19T03:32:32;27.30;;;10.70;;
57297;SDS011;43147;50.972;18.210;2023-03-19T03:34:59;19.30;;;9.50;;
57297;SDS011;43147;50.972;18.210;2023-03-19T03:37:25;28.30;;;11.60;;
57297;SDS011;43147;50.972;18.210;2023-03-19T03:39:50;27.50;;;10.40;;
57297;SDS011;43147;50.972;18.210;2023-03-19T03:42:17;21.20;;;10.90;;
57297;SDS011;43147;50.972;18.210;2023-03-19T03:44:43;21.50;;;9.60;;
57297;SDS011;43147;50.972;18.210;2023-03-19T03:47:09;20.50;;;10.30;;
57297;SDS011;43147;50.972;18.210;2023-03-19T03:49:35;20.70;;;10.10;;
57297;SDS011;43147;50.972;18.210;2023-03-19T03:52:01;20.20;;;9.60;;
57297;SDS011;43147;50.972;18.210;2023-03-19T03:54:26;21.10;;;9.80;;
57297;SDS011;43147;50.972;18.210;2023-03-19T03:56:52;19.80;;;8.90;;
57297;SDS011;43147;50.972;18.210;2023-03-19T03:59:18;18.30;;;9.10;;
57297;SDS011;43147;50.972;18.210;2023-03-19T04:01:43;19.30;;;9.60;;
57297;SDS011;43147;50.972;18.210;2023-03-19T04:04:09;19.30;;;9.90;;
57297;SDS011;43147;50.972;18.210;2023-03-19T04:06:35;19.70;;;9.80;;
57297;SDS011;43147;50.972;18.210;2023-03-19T04:09:01;17.10;;;9.50;;
57297;SDS011;43147;50.972;18.210;2023-03-19T04:11:27;18.80;;;10.10;;
57297;SDS011;43147;50.972;18.210;2023-03-19T04:13:55;14.80;;;9.60;;
57297;SDS011;43147;50.972;18.210;2023-03-19T04:16:22;20.90;;;10.90;;
57297;SDS011;43147;50.972;18.210;2023-03-19T04:18:48;27.70;;;9.30;;
57297;SDS011;43147;50.972;18.210;2023-03-19T04:21:14;20.40;;;9.20;;
57297;SDS011;43147;50.972;18.210;2023-03-19T04:23:40;27.50;;;10.30;;
57297;SDS011;43147;50.972;18.210;2023-03-19T04:26:05;17.10;;;9.50;;
57297;SDS011;43147;50.972;18.210;2023-03-19T04:28:32;19.70;;;10.30;;
57297;SDS011;43147;50.972;18.210;2023-03-19T04:30:59;16.80;;;9.60;;
57297;SDS011;43147;50.972;18.210;2023-03-19T04:33:28;19.20;;;10.10;;
57297;SDS011;43147;50.972;18.210;2023-03-19T04:35:54;18.90;;;10.10;;
57297;SDS011;43147;50.972;18.210;2023-03-19T04:38:21;21.80;;;11.10;;
57297;SDS011;43147;50.972;18.210;2023-03-19T04:40:47;25.00;;;11.20;;
57297;SDS011;43147;50.972;18.210;2023-03-19T04:43:13;24.50;;;11.60;;
57297;SDS011;43147;50.972;18.210;2023-03-19T04:45:39;22.60;;;11.60;;
57297;SDS011;43147;50.972;18.210;2023-03-19T04:48:05;25.90;;;12.60;;
57297;SDS011;43147;50.972;18.210;2023-03-19T04:50:31;17.60;;;9.70;;
57297;SDS011;43147;50.972;18.210;2023-03-19T04:52:57;22.80;;;10.70;;
57297;SDS011;43147;50.972;18.210;2023-03-19T04:55:22;18.00;;;10.40;;
57297;SDS011;43147;50.972;18.210;2023-03-19T04:57:48;16.50;;;9.70;;
57297;SDS011;43147;50.972;18.210;2023-03-19T05:00:15;17.20;;;9.00;;
57297;SDS011;43147;50.972;18.210;2023-03-19T05:02:42;22.50;;;9.90;;
57297;SDS011;43147;50.972;18.210;2023-03-19T05:05:10;16.30;;;9.10;;
57297;SDS011;43147;50.972;18.210;2023-03-19T05:07:38;16.40;;;8.80;;
57297;SDS011;43147;50.972;18.210;2023-03-19T05:10:05;17.10;;;9.30;;
57297;SDS011;43147;50.972;18.210;2023-03-19T05:12:32;16.70;;;9.50;;
57297;SDS011;43147;50.972;18.210;2023-03-19T05:14:57;15.80;;;8.90;;
57297;SDS011;43147;50.972;18.210;2023-03-19T05:17:23;17.80;;;9.60;;
57297;SDS011;43147;50.972;18.210;2023-03-19T05:19:49;19.40;;;9.40;;
57297;SDS011;43147;50.972;18.210;2023-03-19T05:22:15;18.90;;;9.50;;
57297;SDS011;43147;50.972;18.210;2023-03-19T05:24:42;20.60;;;10.20;;
57297;SDS011;43147;50.972;18.210;2023-03-19T05:27:07;21.10;;;9.80;;
57297;SDS011;43147;50.972;18.210;2023-03-19T05:29:33;17.30;;;10.10;;
57297;SDS011;43147;50.972;18.210;2023-03-19T05:31:59;22.40;;;11.40;;
57297;SDS011;43147;50.972;18.210;2023-03-19T05:34:27;20.80;;;10.20;;
57297;SDS011;43147;50.972;18.210;2023-03-19T05:36:53;16.60;;;10.20;;
57297;SDS011;43147;50.972;18.210;2023-03-19T05:39:19;16.20;;;10.10;;
57297;SDS011;43147;50.972;18.210;2023-03-19T05:41:45;17.20;;;9.40;;
57297;SDS011;43147;50.972;18.210;2023-03-19T05:44:10;19.70;;;11.00;;
57297;SDS011;43147;50.972;18.210;2023-03-19T05:46:36;20.50;;;11.00;;
57297;SDS011;43147;50.972;18.210;2023-03-19T05:49:02;21.50;;;11.90;;
57297;SDS011;43147;50.972;18.210;2023-03-19T05:51:28;19.00;;;11.40;;
57297;SDS011;43147;50.972;18.210;2023-03-19T05:53:54;19.10;;;10.70;;
57297;SDS011;43147;50.972;18.210;2023-03-19T05:56:20;15.40;;;9.50;;
57297;SDS011;43147;50.972;18.210;2023-03-19T05:58:45;14.70;;;10.00;;
57297;SDS011;43147;50.972;18.210;2023-03-19T06:01:11;19.40;;;11.10;;
57297;SDS011;43147;50.972;18.210;2023-03-19T06:03:37;17.50;;;9.80;;
57297;SDS011;43147;50.972;18.210;2023-03-19T06:06:02;16.60;;;10.80;;
57297;SDS011;43147;50.972;18.210;2023-03-19T06:08:28;17.60;;;10.50;;
57297;SDS011;43147;50.972;18.210;2023-03-19T06:10:54;16.70;;;10.20;;
57297;SDS011;43147;50.972;18.210;2023-03-19T06:13:20;19.60;;;10.80;;
57297;SDS011;43147;50.972;18.210;2023-03-19T06:15:46;17.80;;;10.90;;
57297;SDS011;43147;50.972;18.210;2023-03-19T06:18:14;17.50;;;11.20;;
57297;SDS011;43147;50.972;18.210;2023-03-19T06:20:40;17.40;;;10.70;;
57297;SDS011;43147;50.972;18.210;2023-03-19T06:23:06;16.50;;;10.10;;
57297;SDS011;43147;50.972;18.210;2023-03-19T06:25:32;16.80;;;10.40;;
57297;SDS011;43147;50.972;18.210;2023-03-19T06:27:57;18.80;;;10.60;;
57297;SDS011;43147;50.972;18.210;2023-03-19T06:30:23;16.00;;;10.10;;
57297;SDS011;43147;50.972;18.210;2023-03-19T06:32:49;16.80;;;10.80;;
57297;SDS011;43147;50.972;18.210;2023-03-19T06:35:14;17.50;;;11.30;;
57297;SDS011;43147;50.972;18.210;2023-03-19T06:37:40;16.40;;;12.30;;
57297;SDS011;43147;50.972;18.210;2023-03-19T06:40:06;17.40;;;13.20;;
57297;SDS011;43147;50.972;18.210;2023-03-19T06:42:32;15.90;;;12.30;;
57297;SDS011;43147;50.972;18.210;2023-03-19T06:44:58;14.50;;;11.20;;
57297;SDS011;43147;50.972;18.210;2023-03-19T06:47:23;13.70;;;11.70;;
57297;SDS011;43147;50.972;18.210;2023-03-19T06:49:49;16.80;;;12.20;;
57297;SDS011;43147;50.972;18.210;2023-03-19T06:52:14;15.00;;;11.60;;
57297;SDS011;43147;50.972;18.210;2023-03-19T06:54:40;14.50;;;11.50;;
57297;SDS011;43147;50.972;18.210;2023-03-19T06:57:06;17.50;;;12.40;;
57297;SDS011;43147;50.972;18.210;2023-03-19T06:59:31;17.40;;;12.80;;
57297;SDS011;43147;50.972;18.210;2023-03-19T07:01:57;16.10;;;11.90;;
57297;SDS011;43147;50.972;18.210;2023-03-19T07:04:22;18.60;;;11.80;;
57297;SDS011;43147;50.972;18.210;2023-03-19T07:06:48;14.60;;;11.00;;
57297;SDS011;43147;50.972;18.210;2023-03-19T07:09:14;12.70;;;10.20;;
57297;SDS011;43147;50.972;18.210;2023-03-19T07:11:40;13.70;;;10.70;;
57297;SDS011;43147;50.972;18.210;2023-03-19T07:14:05;12.90;;;10.90;;
57297;SDS011;43147;50.972;18.210;2023-03-19T07:16:31;12.30;;;10.20;;
57297;SDS011;43147;50.972;18.210;2023-03-19T07:18:57;17.20;;;11.20;;
57297;SDS011;43147;50.972;18.210;2023-03-19T07:21:22;12.20;;;10.60;;
57297;SDS011;43147;50.972;18.210;2023-03-19T07:23:48;13.70;;;10.80;;
57297;SDS011;43147;50.972;18.210;2023-03-19T07:26:15;12.70;;;10.60;;
57297;SDS011;43147;50.972;18.210;2023-03-19T07:28:41;13.20;;;10.50;;
57297;SDS011;43147;50.972;18.210;2023-03-19T07:31:07;14.20;;;10.60;;
57297;SDS011;43147;50.972;18.210;2023-03-19T07:33:32;12.10;;;10.70;;
57297;SDS011;43147;50.972;18.210;2023-03-19T07:35:58;15.50;;;11.00;;
57297;SDS011;43147;50.972;18.210;2023-03-19T07:38:23;12.70;;;11.20;;
57297;SDS011;43147;50.972;18.210;2023-03-19T07:40:49;13.50;;;11.00;;
57297;SDS011;43147;50.972;18.210;2023-03-19T07:43:15;15.70;;;11.40;;
57297;SDS011;43147;50.972;18.210;2023-03-19T07:45:41;15.00;;;11.40;;
57297;SDS011;43147;50.972;18.210;2023-03-19T07:48:07;15.70;;;10.70;;
57297;SDS011;43147;50.972;18.210;2023-03-19T07:50:33;13.60;;;9.90;;
57297;SDS011;43147;50.972;18.210;2023-03-19T07:52:58;14.50;;;10.40;;
57297;SDS011;43147;50.972;18.210;2023-03-19T07:55:24;11.40;;;9.90;;
57297;SDS011;43147;50.972;18.210;2023-03-19T07:57:50;13.20;;;10.30;;
57297;SDS011;43147;50.972;18.210;2023-03-19T08:00:16;11.70;;;9.50;;
57297;SDS011;43147;50.972;18.210;2023-03-19T08:02:42;10.90;;;8.30;;
57297;SDS011;43147;50.972;18.210;2023-03-19T08:05:08;13.70;;;9.60;;
57297;SDS011;43147;50.972;18.210;2023-03-19T08:07:34;15.30;;;8.50;;
57297;SDS011;43147;50.972;18.210;2023-03-19T08:10:01;9.30;;;8.20;;
57297;SDS011;43147;50.972;18.210;2023-03-19T08:12:28;9.80;;;8.20;;
57297;SDS011;43147;50.972;18.210;2023-03-19T08:14:54;9.60;;;8.50;;
57297;SDS011;43147;50.972;18.210;2023-03-19T08:17:19;10.60;;;8.10;;
57297;SDS011;43147;50.972;18.210;2023-03-19T08:19:46;9.10;;;8.10;;
57297;SDS011;43147;50.972;18.210;2023-03-19T08:22:12;9.30;;;8.10;;
57297;SDS011;43147;50.972;18.210;2023-03-19T08:24:38;9.80;;;8.40;;
57297;SDS011;43147;50.972;18.210;2023-03-19T08:27:04;9.80;;;8.80;;
57297;SDS011;43147;50.972;18.210;2023-03-19T08:29:30;12.40;;;8.80;;
57297;SDS011;43147;50.972;18.210;2023-03-19T08:31:55;10.00;;;8.80;;
57297;SDS011;43147;50.972;18.210;2023-03-19T08:34:22;12.50;;;8.60;;
57297;SDS011;43147;50.972;18.210;2023-03-19T08:36:48;9.80;;;8.60;;
57297;SDS011;43147;50.972;18.210;2023-03-19T08:39:14;10.90;;;9.10;;
57297;SDS011;43147;50.972;18.210;2023-03-19T08:41:39;12.00;;;9.00;;
57297;SDS011;43147;50.972;18.210;2023-03-19T08:44:05;10.90;;;9.30;;
57297;SDS011;43147;50.972;18.210;2023-03-19T08:46:31;15.80;;;10.00;;
57297;SDS011;43147;50.972;18.210;2023-03-19T08:48:57;13.80;;;9.70;;
57297;SDS011;43147;50.972;18.210;2023-03-19T08:51:24;11.80;;;9.20;;
57297;SDS011;43147;50.972;18.210;2023-03-19T08:53:50;11.20;;;10.00;;
57297;SDS011;43147;50.972;18.210;2023-03-19T08:56:16;11.30;;;9.50;;
57297;SDS011;43147;50.972;18.210;2023-03-19T08:58:42;11.60;;;9.80;;
57297;SDS011;43147;50.972;18.210;2023-03-19T09:01:10;10.50;;;9.20;;
57297;SDS011;43147;50.972;18.210;2023-03-19T09:03:37;10.20;;;9.20;;
57297;SDS011;43147;50.972;18.210;2023-03-19T09:06:04;9.60;;;8.30;;
57297;SDS011;43147;50.972;18.210;2023-03-19T09:08:31;12.70;;;8.70;;
57297;SDS011;43147;50.972;18.210;2023-03-19T09:10:58;11.60;;;9.50;;
57297;SDS011;43147;50.972;18.210;2023-03-19T09:13:24;10.20;;;8.20;;
57297;SDS011;43147;50.972;18.210;2023-03-19T09:15:51;9.30;;;8.30;;
57297;SDS011;43147;50.972;18.210;2023-03-19T09:18:17;11.30;;;7.70;;
57297;SDS011;43147;50.972;18.210;2023-03-19T09:20:45;12.70;;;7.50;;
57297;SDS011;43147;50.972;18.210;2023-03-19T09:23:12;7.50;;;6.70;;
57297;SDS011;43147;50.972;18.210;2023-03-19T09:25:37;9.00;;;7.30;;
57297;SDS011;43147;50.972;18.210;2023-03-19T09:28:03;8.00;;;7.20;;
57297;SDS011;43147;50.972;18.210;2023-03-19T09:30:29;7.70;;;6.90;;
57297;SDS011;43147;50.972;18.210;2023-03-19T09:32:55;8.10;;;7.00;;
57297;SDS011;43147;50.972;18.210;2023-03-19T09:35:20;10.90;;;7.70;;
57297;SDS011;43147;50.972;18.210;2023-03-19T09:37:47;10.00;;;7.50;;
57297;SDS011;43147;50.972;18.210;2023-03-19T09:40:25;8.30;;;7.50;;
57297;SDS011;43147;50.972;18.210;2023-03-19T09:45:43;7.80;;;7.10;;
57297;SDS011;43147;50.972;18.210;2023-03-19T09:48:14;8.30;;;7.40;;
57297;SDS011;43147;50.972;18.210;2023-03-19T09:50:45;7.50;;;6.80;;
57297;SDS011;43147;50.972;18.210;2023-03-19T09:55:48;8.90;;;7.60;;
57297;SDS011;43147;50.972;18.210;2023-03-19T09:58:19;15.70;;;11.50;;
57297;SDS011;43147;50.972;18.210;2023-03-19T10:00:48;10.90;;;7.80;;
57297;SDS011;43147;50.972;18.210;2023-03-19T10:06:08;10.00;;;8.20;;
57297;SDS011;43147;50.972;18.210;2023-03-19T10:16:46;10.10;;;9.10;;
57297;SDS011;43147;50.972;18.210;2023-03-19T10:19:15;12.80;;;9.90;;
57297;SDS011;43147;50.972;18.210;2023-03-19T10:21:47;12.00;;;9.60;;
57297;SDS011;43147;50.972;18.210;2023-03-19T10:24:20;12.70;;;10.20;;
57297;SDS011;43147;50.972;18.210;2023-03-19T10:26:46;12.20;;;9.70;;
57297;SDS011;43147;50.972;18.210;2023-03-19T10:29:17;16.70;;;13.00;;
57297;SDS011;43147;50.972;18.210;2023-03-19T10:34:28;13.80;;;10.00;;
57297;SDS011;43147;50.972;18.210;2023-03-19T10:37:11;19.60;;;12.90;;
57297;SDS011;43147;50.972;18.210;2023-03-19T10:39:38;14.30;;;11.20;;
57297;SDS011;43147;50.972;18.210;2023-03-19T10:42:08;11.40;;;9.00;;
57297;SDS011;43147;50.972;18.210;2023-03-19T10:47:37;9.90;;;8.30;;
57297;SDS011;43147;50.972;18.210;2023-03-19T10:50:04;12.80;;;8.90;;
57297;SDS011;43147;50.972;18.210;2023-03-19T10:52:31;14.40;;;10.50;;
57297;SDS011;43147;50.972;18.210;2023-03-19T10:55:04;10.80;;;9.60;;
57297;SDS011;43147;50.972;18.210;2023-03-19T10:57:40;12.00;;;9.60;;
57297;SDS011;43147;50.972;18.210;2023-03-19T11:02:50;9.40;;;8.20;;
57297;SDS011;43147;50.972;18.210;2023-03-19T11:05:21;13.50;;;10.60;;
57297;SDS011;43147;50.972;18.210;2023-03-19T11:07:50;9.00;;;8.10;;
57297;SDS011;43147;50.972;18.210;2023-03-19T11:10:43;11.00;;;7.90;;
57297;SDS011;43147;50.972;18.210;2023-03-19T11:13:24;9.40;;;8.20;;
57297;SDS011;43147;50.972;18.210;2023-03-19T11:15:51;9.80;;;8.10;;
57297;SDS011;43147;50.972;18.210;2023-03-19T11:18:21;8.80;;;7.90;;
57297;SDS011;43147;50.972;18.210;2023-03-19T11:20:56;11.20;;;7.70;;
57297;SDS011;43147;50.972;18.210;2023-03-19T11:23:27;8.80;;;7.90;;
57297;SDS011;43147;50.972;18.210;2023-03-19T11:25:54;9.00;;;7.60;;
57297;SDS011;43147;50.972;18.210;2023-03-19T11:28:24;10.20;;;8.90;;
57297;SDS011;43147;50.972;18.210;2023-03-19T11:36:20;10.20;;;8.50;;
57297;SDS011;43147;50.972;18.210;2023-03-19T11:46:36;10.10;;;8.00;;
57297;SDS011;43147;50.972;18.210;2023-03-19T11:51:52;9.90;;;8.10;;
57297;SDS011;43147;50.972;18.210;2023-03-19T12:00:10;10.50;;;8.80;;
57297;SDS011;43147;50.972;18.210;2023-03-19T12:05:45;9.80;;;8.70;;
57297;SDS011;43147;50.972;18.210;2023-03-19T12:19:14;12.20;;;8.00;;
57297;SDS011;43147;50.972;18.210;2023-03-19T12:30:02;8.90;;;7.40;;
57297;SDS011;43147;50.972;18.210;2023-03-19T12:35:34;8.80;;;7.70;;
57297;SDS011;43147;50.972;18.210;2023-03-19T12:46:18;9.30;;;7.70;;
57297;SDS011;43147;50.972;18.210;2023-03-19T12:48:51;9.50;;;8.10;;
57297;SDS011;43147;50.972;18.210;2023-03-19T12:51:23;10.30;;;8.90;;
57297;SDS011;43147;50.972;18.210;2023-03-19T12:53:55;11.90;;;9.10;;
57297;SDS011;43147;50.972;18.210;2023-03-19T12:56:45;10.10;;;9.10;;
57297;SDS011;43147;50.972;18.210;2023-03-19T12:59:28;12.70;;;10.20;;
57297;SDS011;43147;50.972;18.210;2023-03-19T13:04:55;12.40;;;9.20;;
57297;SDS011;43147;50.972;18.210;2023-03-19T13:10:20;12.40;;;8.70;;
57297;SDS011;43147;50.972;18.210;2023-03-19T13:12:49;10.30;;;8.10;;
57297;SDS011;43147;50.972;18.210;2023-03-19T13:15:32;10.50;;;8.50;;
57297;SDS011;43147;50.972;18.210;2023-03-19T13:23:42;10.80;;;7.70;;
57297;SDS011;43147;50.972;18.210;2023-03-19T13:26:10;9.60;;;8.00;;
57297;SDS011;43147;50.972;18.210;2023-03-19T13:28:37;10.50;;;8.90;;
57297;SDS011;43147;50.972;18.210;2023-03-19T13:31:18;10.50;;;7.70;;
57297;SDS011;43147;50.972;18.210;2023-03-19T13:33:58;9.30;;;7.60;;
57297;SDS011;43147;50.972;18.210;2023-03-19T13:36:26;12.60;;;7.40;;
57297;SDS011;43147;50.972;18.210;2023-03-19T13:38:55;8.20;;;7.30;;
57297;SDS011;43147;50.972;18.210;2023-03-19T13:43:57;11.00;;;8.90;;
57297;SDS011;43147;50.972;18.210;2023-03-19T13:49:01;11.30;;;8.80;;
57297;SDS011;43147;50.972;18.210;2023-03-19T13:51:34;9.80;;;8.40;;
57297;SDS011;43147;50.972;18.210;2023-03-19T13:59:26;8.90;;;7.90;;
57297;SDS011;43147;50.972;18.210;2023-03-19T14:01:54;8.40;;;7.40;;
57297;SDS011;43147;50.972;18.210;2023-03-19T14:04:30;12.60;;;8.60;;
57297;SDS011;43147;50.972;18.210;2023-03-19T14:07:16;10.10;;;8.60;;
57297;SDS011;43147;50.972;18.210;2023-03-19T14:09:44;8.90;;;8.00;;
57297;SDS011;43147;50.972;18.210;2023-03-19T14:19:45;12.40;;;8.60;;
57297;SDS011;43147;50.972;18.210;2023-03-19T14:22:18;12.00;;;8.20;;
57297;SDS011;43147;50.972;18.210;2023-03-19T14:25:01;9.30;;;7.60;;
57297;SDS011;43147;50.972;18.210;2023-03-19T14:27:44;10.80;;;8.10;;
57297;SDS011;43147;50.972;18.210;2023-03-19T14:36:28;10.30;;;8.90;;
57297;SDS011;43147;50.972;18.210;2023-03-19T14:41:30;13.50;;;9.40;;
57297;SDS011;43147;50.972;18.210;2023-03-19T14:52:21;10.00;;;8.10;;
57297;SDS011;43147;50.972;18.210;2023-03-19T14:55:00;11.90;;;9.40;;
57297;SDS011;43147;50.972;18.210;2023-03-19T14:57:29;10.10;;;7.70;;
57297;SDS011;43147;50.972;18.210;2023-03-19T14:59:57;10.00;;;8.80;;
57297;SDS011;43147;50.972;18.210;2023-03-19T15:05:09;10.60;;;9.00;;
57297;SDS011;43147;50.972;18.210;2023-03-19T15:07:44;13.30;;;9.30;;
57297;SDS011;43147;50.972;18.210;2023-03-19T15:10:13;11.40;;;8.70;;
57297;SDS011;43147;50.972;18.210;2023-03-19T15:18:24;9.60;;;8.00;;
57297;SDS011;43147;50.972;18.210;2023-03-19T15:20:51;84.90;;;54.80;;
57297;SDS011;43147;50.972;18.210;2023-03-19T15:23:21;11.20;;;9.40;;
57297;SDS011;43147;50.972;18.210;2023-03-19T15:25:54;14.60;;;11.20;;
57297;SDS011;43147;50.972;18.210;2023-03-19T15:28:26;18.30;;;12.90;;
57297;SDS011;43147;50.972;18.210;2023-03-19T15:33:31;12.10;;;9.40;;
57297;SDS011;43147;50.972;18.210;2023-03-19T15:36:06;10.90;;;8.70;;
57297;SDS011;43147;50.972;18.210;2023-03-19T15:41:25;11.90;;;9.70;;
57297;SDS011;43147;50.972;18.210;2023-03-19T15:43:53;11.30;;;9.20;;
57297;SDS011;43147;50.972;18.210;2023-03-19T15:46:21;12.90;;;9.90;;
57297;SDS011;43147;50.972;18.210;2023-03-19T15:48:50;12.20;;;9.50;;
57297;SDS011;43147;50.972;18.210;2023-03-19T15:51:18;12.50;;;9.90;;
57297;SDS011;43147;50.972;18.210;2023-03-19T15:53:45;12.00;;;9.40;;
57297;SDS011;43147;50.972;18.210;2023-03-19T15:56:12;14.10;;;9.70;;
57297;SDS011;43147;50.972;18.210;2023-03-19T15:58:40;12.60;;;10.30;;
57297;SDS011;43147;50.972;18.210;2023-03-19T16:01:09;14.10;;;10.40;;
57297;SDS011;43147;50.972;18.210;2023-03-19T16:03:39;12.00;;;10.20;;
57297;SDS011;43147;50.972;18.210;2023-03-19T16:06:16;70.40;;;48.50;;
57297;SDS011;43147;50.972;18.210;2023-03-19T16:08:49;38.70;;;28.90;;
57297;SDS011;43147;50.972;18.210;2023-03-19T16:13:58;11.60;;;9.30;;
57297;SDS011;43147;50.972;18.210;2023-03-19T16:16:29;12.40;;;10.80;;
57297;SDS011;43147;50.972;18.210;2023-03-19T16:18:57;13.60;;;8.80;;
57297;SDS011;43147;50.972;18.210;2023-03-19T16:21:28;15.00;;;9.60;;
57297;SDS011;43147;50.972;18.210;2023-03-19T16:27:01;15.70;;;10.80;;
57297;SDS011;43147;50.972;18.210;2023-03-19T16:29:39;18.70;;;12.90;;
57297;SDS011;43147;50.972;18.210;2023-03-19T16:34:56;14.90;;;11.20;;
57297;SDS011;43147;50.972;18.210;2023-03-19T16:43:05;16.70;;;12.20;;
57297;SDS011;43147;50.972;18.210;2023-03-19T16:45:32;18.80;;;11.50;;
57297;SDS011;43147;50.972;18.210;2023-03-19T16:48:00;17.50;;;12.60;;
57297;SDS011;43147;50.972;18.210;2023-03-19T16:50:30;26.20;;;12.00;;
57297;SDS011;43147;50.972;18.210;2023-03-19T16:53:04;104.10;;;41.90;;
57297;SDS011;43147;50.972;18.210;2023-03-19T16:55:34;181.20;;;85.30;;
57297;SDS011;43147;50.972;18.210;2023-03-19T16:58:02;198.10;;;86.90;;
57297;SDS011;43147;50.972;18.210;2023-03-19T17:00:30;357.90;;;123.80;;